createdAt,value
2019-04-25T00:00:34.861Z,1002.11
2019-04-25T00:01:34.786Z,1002.06
2019-04-25T00:02:34.698Z,1002.16
2019-04-25T00:03:34.622Z,1002.16
2019-04-25T00:04:34.547Z,1002.04
2019-04-25T00:05:34.462Z,1001.99
2019-04-25T00:06:34.389Z,1002.04
2019-04-25T00:07:34.298Z,1002.09
2019-04-25T00:08:34.238Z,1002.13
2019-04-25T00:09:34.135Z,1002.13
2019-04-25T00:10:34.079Z,1002.13
2019-04-25T00:11:33.977Z,1002.22
2019-04-25T00:12:33.898Z,1002.22
2019-04-25T00:13:33.823Z,1002.24
2019-04-25T00:14:33.737Z,1002.26
2019-04-25T00:15:33.669Z,1002.16
2019-04-25T00:16:33.573Z,1002.09
2019-04-25T00:17:33.499Z,1002.18
2019-04-25T00:18:33.421Z,1002.27
2019-04-25T00:19:33.349Z,1002.35
2019-04-25T00:20:33.251Z,1002.39
2019-04-25T00:21:33.895Z,1002.36
2019-04-25T00:22:33.099Z,1002.35
2019-04-25T00:23:33.012Z,1002.33
2019-04-25T00:24:32.938Z,1002.28
2019-04-25T00:25:32.849Z,1002.27
2019-04-25T00:26:32.774Z,1002.18
2019-04-25T00:27:32.687Z,1002.21
2019-04-25T00:28:32.617Z,1002.11
2019-04-25T00:29:32.526Z,1002.13
2019-04-25T00:30:32.458Z,1002.15
2019-04-25T00:31:32.374Z,1002.22
2019-04-25T00:32:32.289Z,1002.29
2019-04-25T00:33:32.213Z,1002.30
2019-04-25T00:34:33.661Z,1002.28
2019-04-25T00:35:32.052Z,1002.29
2019-04-25T00:36:31.968Z,1002.24
2019-04-25T00:37:32.300Z,1002.23
2019-04-25T00:38:31.886Z,1002.18
2019-04-25T00:39:31.952Z,1002.11
2019-04-25T00:40:31.886Z,1002.13
2019-04-25T00:41:32.056Z,1002.19
2019-04-25T00:42:32.009Z,1002.22
2019-04-25T00:43:31.523Z,1002.22
2019-04-25T00:44:31.924Z,1002.29
2019-04-25T00:45:31.732Z,1002.30
2019-04-25T00:46:32.220Z,1002.28
2019-04-25T00:47:31.538Z,1002.26
2019-04-25T00:48:31.684Z,1002.29
2019-04-25T00:49:32.086Z,1002.28
2019-04-25T00:50:31.950Z,1002.27
2019-04-25T00:51:31.776Z,1002.31
2019-04-25T00:52:31.334Z,1002.33
2019-04-25T00:53:31.945Z,1002.31
2019-04-25T00:54:31.347Z,1002.29
2019-04-25T00:55:31.460Z,1002.31
2019-04-25T00:56:32.075Z,1002.36
2019-04-25T00:57:31.920Z,1002.29
2019-04-25T00:58:31.432Z,1002.32
2019-04-25T00:59:31.934Z,1002.31
2019-04-25T01:00:30.016Z,1002.34
2019-04-25T01:01:31.579Z,1002.33
2019-04-25T01:02:31.312Z,1002.31
2019-04-25T01:03:31.563Z,1002.30
2019-04-25T01:04:29.695Z,1002.32
2019-04-25T01:05:29.606Z,1002.26
2019-04-25T01:06:29.541Z,1002.28
2019-04-25T01:07:29.443Z,1002.27
2019-04-25T01:08:29.369Z,1002.21
2019-04-25T01:09:29.279Z,1002.22
2019-04-25T01:10:29.204Z,1002.20
2019-04-25T01:11:29.117Z,1002.27
2019-04-25T01:12:29.043Z,1002.32
2019-04-25T01:13:28.954Z,1002.36
2019-04-25T01:14:28.880Z,1002.41
2019-04-25T01:15:28.793Z,1002.44
2019-04-25T01:16:28.718Z,1002.47
2019-04-25T01:17:28.630Z,1002.47
2019-04-25T01:18:29.373Z,1002.49
2019-04-25T01:19:28.469Z,1002.53
2019-04-25T01:20:28.393Z,1002.51
2019-04-25T01:21:28.336Z,1002.53
2019-04-25T01:22:28.230Z,1002.54
2019-04-25T01:23:28.144Z,1002.59
2019-04-25T01:24:28.069Z,1002.54
2019-04-25T01:25:38.616Z,1002.59
2019-04-25T01:26:27.905Z,1002.60
2019-04-25T01:27:27.819Z,1002.59
2019-04-25T01:28:27.743Z,1002.58
2019-04-25T01:29:27.655Z,1002.59
2019-04-25T01:30:27.581Z,1002.54
2019-04-25T01:31:27.495Z,1002.52
2019-04-25T01:32:27.419Z,1002.49
2019-04-25T01:33:27.331Z,1002.53
2019-04-25T01:34:27.256Z,1002.47
2019-04-25T01:35:27.170Z,1002.48
2019-04-25T01:36:27.095Z,1002.44
2019-04-25T01:37:27.008Z,1002.36
2019-04-25T01:38:26.925Z,1002.36
2019-04-25T01:39:26.844Z,1002.39
2019-04-25T01:40:26.759Z,1002.40
2019-04-25T01:41:26.682Z,1002.43
2019-04-25T01:42:26.595Z,1002.48
2019-04-25T01:43:26.522Z,1002.50
2019-04-25T01:44:26.434Z,1002.52
2019-04-25T01:45:26.369Z,1002.52
2019-04-25T01:46:26.283Z,1002.52
2019-04-25T01:47:26.196Z,1002.55
2019-04-25T01:48:26.121Z,1002.53
2019-04-25T01:49:26.033Z,1002.56
2019-04-25T01:50:25.946Z,1002.58
2019-04-25T01:51:25.871Z,1002.59
2019-04-25T01:52:25.784Z,1002.55
2019-04-25T01:53:25.710Z,1002.57
2019-04-25T01:54:25.621Z,1002.59
2019-04-25T01:55:25.548Z,1002.55
2019-04-25T01:56:25.464Z,1002.56
2019-04-25T01:57:25.384Z,1002.61
2019-04-25T01:58:25.304Z,1002.59
2019-04-25T01:59:25.223Z,1002.59
2019-04-25T02:00:25.134Z,1002.62
2019-04-25T02:01:25.059Z,1002.60
2019-04-25T02:02:24.972Z,1002.56
2019-04-25T02:03:27.064Z,1002.56
2019-04-25T02:04:24.809Z,1002.58
2019-04-25T02:05:24.734Z,1002.54
2019-04-25T02:06:24.800Z,1002.56
2019-04-25T02:07:24.574Z,1002.54
2019-04-25T02:08:24.484Z,1002.57
2019-04-25T02:09:24.933Z,1002.58
2019-04-25T02:10:24.323Z,1002.59
2019-04-25T02:11:24.247Z,1002.63
2019-04-25T02:12:24.173Z,1002.64
2019-04-25T02:13:24.085Z,1002.58
2019-04-25T02:14:23.999Z,1002.55
2019-04-25T02:15:23.926Z,1002.55
2019-04-25T02:16:23.888Z,1002.60
2019-04-25T02:17:24.102Z,1002.69
2019-04-25T02:18:23.782Z,1002.83
2019-04-25T02:19:24.158Z,1002.85
2019-04-25T02:20:23.885Z,1002.94
2019-04-25T02:21:23.626Z,1002.99
2019-04-25T02:22:24.303Z,1003.06
2019-04-25T02:23:24.036Z,1003.10
2019-04-25T02:24:23.724Z,1003.13
2019-04-25T02:25:24.558Z,1003.18
2019-04-25T02:26:24.079Z,1003.23
2019-04-25T02:27:24.140Z,1003.26
2019-04-25T02:28:24.041Z,1003.28
2019-04-25T02:29:23.515Z,1003.31
2019-04-25T02:30:25.268Z,1003.40
2019-04-25T02:31:24.544Z,1003.46
2019-04-25T02:32:24.514Z,1003.44
2019-04-25T02:33:24.210Z,1003.49
2019-04-25T02:34:24.847Z,1003.51
2019-04-25T02:35:24.305Z,1003.53
2019-04-25T02:36:24.532Z,1003.51
2019-04-25T02:37:22.156Z,1003.50
2019-04-25T02:38:24.125Z,1003.56
2019-04-25T02:39:21.979Z,1003.58
2019-04-25T02:40:23.797Z,1003.55
2019-04-25T02:41:21.818Z,1003.58
2019-04-25T02:42:24.397Z,1003.58
2019-04-25T02:43:23.774Z,1003.57
2019-04-25T02:44:21.565Z,1003.60
2019-04-25T02:45:21.490Z,1003.67
2019-04-25T02:46:21.402Z,1003.67
2019-04-25T02:47:21.327Z,1003.72
2019-04-25T02:48:21.252Z,1003.71
2019-04-25T02:49:34.769Z,1003.74
2019-04-25T02:50:21.079Z,1003.72
2019-04-25T02:51:21.002Z,1003.71
2019-04-25T02:52:20.915Z,1003.67
2019-04-25T02:53:20.840Z,1003.69
2019-04-25T02:54:20.763Z,1003.63
2019-04-25T02:55:30.833Z,1003.68
2019-04-25T02:56:31.204Z,1003.68
2019-04-25T02:57:20.515Z,1003.69
2019-04-25T02:58:20.432Z,1003.67
2019-04-25T02:59:20.354Z,1003.66
2019-04-25T03:00:20.279Z,1003.68
2019-04-25T03:01:25.124Z,1003.71
2019-04-25T03:02:20.102Z,1003.69
2019-04-25T03:03:20.029Z,1003.69
2019-04-25T03:04:19.941Z,1003.67
2019-04-25T03:05:19.879Z,1003.73
2019-04-25T03:06:19.784Z,1003.74
2019-04-25T03:07:19.712Z,1003.70
2019-04-25T03:08:19.619Z,1003.73
2019-04-25T03:09:19.542Z,1003.76
2019-04-25T03:10:19.463Z,1003.73
2019-04-25T03:11:19.380Z,1003.74
2019-04-25T03:12:29.815Z,1003.74
2019-04-25T03:13:19.226Z,1003.72
2019-04-25T03:14:19.129Z,1003.69
2019-04-25T03:15:19.060Z,1003.69
2019-04-25T03:16:18.967Z,1003.69
2019-04-25T03:17:18.893Z,1003.79
2019-04-25T03:18:18.804Z,1003.80
2019-04-25T03:19:18.734Z,1003.86
2019-04-25T03:20:18.642Z,1003.84
2019-04-25T03:21:18.570Z,1003.83
2019-04-25T03:22:18.481Z,1003.78
2019-04-25T03:23:18.413Z,1003.80
2019-04-25T03:24:18.362Z,1003.78
2019-04-25T03:25:18.242Z,1003.81
2019-04-25T03:26:18.156Z,1003.82
2019-04-25T03:27:18.081Z,1003.83
2019-04-25T03:28:17.992Z,1003.85
2019-04-25T03:29:17.930Z,1003.91
2019-04-25T03:30:18.263Z,1003.90
2019-04-25T03:31:22.510Z,1003.88
2019-04-25T03:32:20.021Z,1003.88
2019-04-25T03:33:19.550Z,1003.94
2019-04-25T03:34:20.621Z,1003.94
2019-04-25T03:35:17.431Z,1003.95
2019-04-25T03:36:17.347Z,1003.97
2019-04-25T03:37:17.268Z,1003.98
2019-04-25T03:38:17.181Z,1004.04
2019-04-25T03:39:17.107Z,1004.02
2019-04-25T03:40:17.020Z,1003.98
2019-04-25T03:41:16.958Z,1003.99
2019-04-25T03:42:16.862Z,1003.97
2019-04-25T03:43:16.782Z,1004.03
2019-04-25T03:44:16.693Z,1004.03
2019-04-25T03:45:16.628Z,1004.08
2019-04-25T03:46:16.532Z,1004.08
2019-04-25T03:47:16.467Z,1004.12
2019-04-25T03:48:16.370Z,1004.17
2019-04-25T03:49:16.294Z,1004.19
2019-04-25T03:50:16.208Z,1004.16
2019-04-25T03:51:16.136Z,1004.18
2019-04-25T03:52:16.045Z,1004.22
2019-04-25T03:53:15.970Z,1004.26
2019-04-25T03:54:15.883Z,1004.25
2019-04-25T03:55:15.808Z,1004.30
2019-04-25T03:56:15.720Z,1004.34
2019-04-25T03:57:15.645Z,1004.37
2019-04-25T03:58:15.558Z,1004.40
2019-04-25T03:59:16.107Z,1004.43
2019-04-25T04:00:15.421Z,1004.44
2019-04-25T04:01:15.697Z,1004.46
2019-04-25T04:02:15.364Z,1004.51
2019-04-25T04:03:15.251Z,1004.49
2019-04-25T04:04:16.329Z,1004.55
2019-04-25T04:05:15.086Z,1004.57
2019-04-25T04:06:15.673Z,1004.65
2019-04-25T04:07:15.856Z,1004.67
2019-04-25T04:08:15.752Z,1004.70
2019-04-25T04:09:15.234Z,1004.76
2019-04-25T04:10:15.429Z,1004.78
2019-04-25T04:11:15.516Z,1004.81
2019-04-25T04:12:14.764Z,1004.84
2019-04-25T04:13:15.515Z,1004.86
2019-04-25T04:14:15.393Z,1004.88
2019-04-25T04:15:15.579Z,1004.91
2019-04-25T04:16:14.764Z,1004.92
2019-04-25T04:17:15.099Z,1004.96
2019-04-25T04:18:16.242Z,1004.99
2019-04-25T04:19:14.782Z,1005.00
2019-04-25T04:20:14.765Z,1004.97
2019-04-25T04:21:15.912Z,1005.00
2019-04-25T04:22:15.116Z,1004.95
2019-04-25T04:23:14.352Z,1004.98
2019-04-25T04:24:14.159Z,1004.96
2019-04-25T04:25:13.880Z,1004.91
2019-04-25T04:26:13.663Z,1004.95
2019-04-25T04:27:14.484Z,1004.93
2019-04-25T04:28:14.047Z,1005.00
2019-04-25T04:29:14.146Z,1005.01
2019-04-25T04:30:14.146Z,1005.02
2019-04-25T04:31:14.311Z,1005.12
2019-04-25T04:32:14.389Z,1005.12
2019-04-25T04:33:24.263Z,1005.16
2019-04-25T04:34:14.331Z,1005.19
2019-04-25T04:35:14.402Z,1005.19
2019-04-25T04:36:14.654Z,1005.17
2019-04-25T04:37:13.960Z,1005.19
2019-04-25T04:38:12.300Z,1005.22
2019-04-25T04:39:13.873Z,1005.22
2019-04-25T04:40:12.142Z,1005.27
2019-04-25T04:41:12.068Z,1005.25
2019-04-25T04:42:13.635Z,1005.27
2019-04-25T04:43:11.900Z,1005.32
2019-04-25T04:44:11.905Z,1005.33
2019-04-25T04:45:12.408Z,1005.31
2019-04-25T04:46:12.096Z,1005.32
2019-04-25T04:47:12.104Z,1005.36
2019-04-25T04:48:12.753Z,1005.38
2019-04-25T04:49:12.296Z,1005.41
2019-04-25T04:50:11.328Z,1005.42
2019-04-25T04:51:11.250Z,1005.50
2019-04-25T04:52:11.163Z,1005.52
2019-04-25T04:53:11.088Z,1005.50
2019-04-25T04:54:11.052Z,1005.53
2019-04-25T04:55:11.647Z,1005.56
2019-04-25T04:56:11.355Z,1005.57
2019-04-25T04:57:23.233Z,1005.57
2019-04-25T04:58:11.171Z,1005.60
2019-04-25T04:59:10.946Z,1005.59
2019-04-25T05:00:11.067Z,1005.64
2019-04-25T05:01:11.103Z,1005.61
2019-04-25T05:02:11.343Z,1005.63
2019-04-25T05:03:10.476Z,1005.65
2019-04-25T05:04:10.615Z,1005.63
2019-04-25T05:05:10.606Z,1005.62
2019-04-25T05:06:10.897Z,1005.63
2019-04-25T05:07:09.940Z,1005.73
2019-04-25T05:08:10.918Z,1005.72
2019-04-25T05:09:09.790Z,1005.73
2019-04-25T05:10:10.469Z,1005.77
2019-04-25T05:11:09.616Z,1005.79
2019-04-25T05:12:09.542Z,1005.77
2019-04-25T05:13:09.452Z,1005.81
2019-04-25T05:14:09.378Z,1005.79
2019-04-25T05:15:09.291Z,1005.81
2019-04-25T05:16:09.217Z,1005.86
2019-04-25T05:17:09.129Z,1005.90
2019-04-25T05:18:09.056Z,1005.93
2019-04-25T05:19:08.967Z,1005.97
2019-04-25T05:20:08.892Z,1005.98
2019-04-25T05:21:08.816Z,1005.97
2019-04-25T05:22:08.729Z,1006.00
2019-04-25T05:23:08.974Z,1006.01
2019-04-25T05:24:08.567Z,1006.04
2019-04-25T05:25:08.479Z,1006.02
2019-04-25T05:26:08.406Z,1005.97
2019-04-25T05:27:08.317Z,1005.98
2019-04-25T05:28:08.245Z,1006.04
2019-04-25T05:29:08.154Z,1006.09
2019-04-25T05:30:08.092Z,1006.13
2019-04-25T05:31:07.993Z,1006.19
2019-04-25T05:32:07.919Z,1006.19
2019-04-25T05:33:07.830Z,1006.24
2019-04-25T05:34:07.755Z,1006.22
2019-04-25T05:35:07.679Z,1006.24
2019-04-25T05:36:07.594Z,1006.19
2019-04-25T05:37:07.506Z,1006.24
2019-04-25T05:38:07.431Z,1006.23
2019-04-25T05:39:07.369Z,1006.30
2019-04-25T05:40:07.269Z,1006.33
2019-04-25T05:41:07.198Z,1006.34
2019-04-25T05:42:07.706Z,1006.38
2019-04-25T05:43:07.031Z,1006.38
2019-04-25T05:44:06.943Z,1006.42
2019-04-25T05:45:06.869Z,1006.43
2019-04-25T05:46:06.781Z,1006.41
2019-04-25T05:47:06.706Z,1006.39
2019-04-25T05:48:06.644Z,1006.42
2019-04-25T05:49:06.545Z,1006.43
2019-04-25T05:50:06.469Z,1006.45
2019-04-25T05:51:06.399Z,1006.44
2019-04-25T05:52:06.306Z,1006.46
2019-04-25T05:53:06.223Z,1006.45
2019-04-25T05:54:06.145Z,1006.46
2019-04-25T05:55:06.070Z,1006.49
2019-04-25T05:56:05.995Z,1006.49
2019-04-25T05:57:05.912Z,1006.50
2019-04-25T05:58:05.820Z,1006.53
2019-04-25T05:59:05.745Z,1006.56
2019-04-25T06:00:05.670Z,1006.60
2019-04-25T06:01:05.584Z,1006.62
2019-04-25T06:02:05.508Z,1006.71
2019-04-25T06:03:05.423Z,1006.69
2019-04-25T06:04:05.518Z,1006.70
2019-04-25T06:05:05.260Z,1006.80
2019-04-25T06:06:05.183Z,1006.77
2019-04-25T06:07:05.680Z,1006.77
2019-04-25T06:08:05.021Z,1006.82
2019-04-25T06:09:04.947Z,1006.75
2019-04-25T06:10:04.858Z,1006.74
2019-04-25T06:11:04.786Z,1006.76
2019-04-25T06:12:04.811Z,1006.76
2019-04-25T06:13:04.622Z,1006.75
2019-04-25T06:14:04.546Z,1006.78
2019-04-25T06:15:04.459Z,1006.77
2019-04-25T06:16:04.386Z,1006.82
2019-04-25T06:17:04.298Z,1006.81
2019-04-25T06:18:04.223Z,1006.81
2019-04-25T06:19:13.597Z,1006.85
2019-04-25T06:20:06.127Z,1006.85
2019-04-25T06:21:03.985Z,1006.89
2019-04-25T06:22:03.899Z,1006.89
2019-04-25T06:23:03.823Z,1006.92
2019-04-25T06:24:04.298Z,1006.94
2019-04-25T06:25:06.111Z,1006.98
2019-04-25T06:26:18.530Z,1007.00
2019-04-25T06:27:03.824Z,1007.06
2019-04-25T06:28:03.768Z,1007.08
2019-04-25T06:29:03.385Z,1007.09
2019-04-25T06:30:04.355Z,1007.06
2019-04-25T06:31:04.415Z,1007.04
2019-04-25T06:32:06.577Z,1007.06
2019-04-25T06:33:03.322Z,1007.09
2019-04-25T06:34:04.477Z,1007.09
2019-04-25T06:35:04.099Z,1007.08
2019-04-25T06:36:04.169Z,1007.07
2019-04-25T06:37:04.381Z,1007.06
2019-04-25T06:38:03.615Z,1007.04
2019-04-25T06:39:03.990Z,1007.02
2019-04-25T06:40:03.478Z,1007.05
2019-04-25T06:41:03.568Z,1007.07
2019-04-25T06:42:03.913Z,1007.05
2019-04-25T06:43:03.367Z,1007.04
2019-04-25T06:44:02.153Z,1007.05
2019-04-25T06:45:03.458Z,1007.08
2019-04-25T06:46:01.988Z,1007.09
2019-04-25T06:47:03.261Z,1007.10
2019-04-25T06:48:01.826Z,1007.14
2019-04-25T06:49:03.418Z,1007.15
2019-04-25T06:50:01.664Z,1007.16
2019-04-25T06:51:01.588Z,1007.22
2019-04-25T06:52:01.501Z,1007.19
2019-04-25T06:53:01.427Z,1007.18
2019-04-25T06:54:01.345Z,1007.17
2019-04-25T06:55:01.271Z,1007.18
2019-04-25T06:56:01.188Z,1007.15
2019-04-25T06:57:01.101Z,1007.13
2019-04-25T06:58:10.065Z,1007.14
2019-04-25T06:59:00.952Z,1007.15
2019-04-25T07:00:00.863Z,1007.16
2019-04-25T07:01:01.039Z,1007.18
2019-04-25T07:02:00.713Z,1007.23
2019-04-25T07:03:00.633Z,1007.24
2019-04-25T07:04:00.553Z,1007.25
2019-04-25T07:05:00.464Z,1007.19
2019-04-25T07:06:00.390Z,1007.20
2019-04-25T07:07:09.644Z,1007.24
2019-04-25T07:08:00.227Z,1007.28
2019-04-25T07:09:00.152Z,1007.31
2019-04-25T07:10:00.139Z,1007.35
2019-04-25T07:10:59.990Z,1007.38
2019-04-25T07:11:59.915Z,1007.37
2019-04-25T07:12:59.828Z,1007.45
2019-04-25T07:13:59.756Z,1007.45
2019-04-25T07:14:59.680Z,1007.47
2019-04-25T07:15:59.603Z,1007.53
2019-04-25T07:16:59.516Z,1007.51
2019-04-25T07:17:59.440Z,1007.50
2019-04-25T07:18:59.353Z,1007.47
2019-04-25T07:19:59.279Z,1007.50
2019-04-25T07:20:59.203Z,1007.52
2019-04-25T07:21:59.116Z,1007.46
2019-04-25T07:22:59.041Z,1007.53
2019-04-25T07:23:58.966Z,1007.54
2019-04-25T07:24:58.879Z,1007.51
2019-04-25T07:25:58.804Z,1007.56
2019-04-25T07:26:58.731Z,1007.57
2019-04-25T07:27:58.674Z,1007.56
2019-04-25T07:28:58.566Z,1007.57
2019-04-25T07:29:58.492Z,1007.57
2019-04-25T07:30:58.418Z,1007.60
2019-04-25T07:31:58.330Z,1007.60
2019-04-25T07:32:58.255Z,1007.66
2019-04-25T07:33:58.180Z,1007.70
2019-04-25T07:34:58.106Z,1007.75
2019-04-25T07:35:58.030Z,1007.78
2019-04-25T07:36:57.942Z,1007.81
2019-04-25T07:37:57.870Z,1007.81
2019-04-25T07:39:07.553Z,1007.81
2019-04-25T07:39:57.729Z,1007.83
2019-04-25T07:40:57.631Z,1007.84
2019-04-25T07:41:57.557Z,1007.78
2019-04-25T07:42:57.481Z,1007.79
2019-04-25T07:43:57.406Z,1007.80
2019-04-25T07:44:57.356Z,1007.83
2019-04-25T07:45:57.257Z,1007.83
2019-04-25T07:46:57.188Z,1007.85
2019-04-25T07:47:57.140Z,1007.84
2019-04-25T07:48:57.021Z,1007.91
2019-04-25T07:49:56.944Z,1007.90
2019-04-25T07:50:56.882Z,1007.86
2019-04-25T07:51:56.794Z,1007.93
2019-04-25T07:52:56.719Z,1007.94
2019-04-25T07:53:56.645Z,1007.95
2019-04-25T07:54:56.588Z,1007.90
2019-04-25T07:55:56.495Z,1007.96
2019-04-25T07:56:56.419Z,1007.97
2019-04-25T07:57:56.344Z,1007.95
2019-04-25T07:58:56.272Z,1008.00
2019-04-25T07:59:56.195Z,1007.99
2019-04-25T08:00:56.119Z,1007.98
2019-04-25T08:01:56.045Z,1007.98
2019-04-25T08:02:55.971Z,1007.96
2019-04-25T08:03:55.909Z,1008.01
2019-04-25T08:04:55.900Z,1008.01
2019-04-25T08:05:55.762Z,1007.97
2019-04-25T08:06:55.684Z,1007.96
2019-04-25T08:07:55.609Z,1007.91
2019-04-25T08:08:55.536Z,1007.93
2019-04-25T08:09:55.460Z,1007.97
2019-04-25T08:10:55.385Z,1007.97
2019-04-25T08:11:55.309Z,1007.97
2019-04-25T08:12:55.237Z,1007.94
2019-04-25T08:13:55.159Z,1007.94
2019-04-25T08:14:55.085Z,1007.94
2019-04-25T08:15:55.021Z,1007.96
2019-04-25T08:16:54.946Z,1008.01
2019-04-25T08:17:54.872Z,1008.03
2019-04-25T08:18:54.798Z,1008.04
2019-04-25T08:19:54.722Z,1008.06
2019-04-25T08:20:54.647Z,1008.08
2019-04-25T08:21:54.585Z,1008.08
2019-04-25T08:22:58.835Z,1008.11
2019-04-25T08:23:54.451Z,1008.08
2019-04-25T08:24:54.360Z,1008.13
2019-04-25T08:25:54.467Z,1008.14
2019-04-25T08:26:54.223Z,1008.11
2019-04-25T08:27:55.233Z,1008.20
2019-04-25T08:28:57.500Z,1008.15
2019-04-25T08:29:54.327Z,1008.15
2019-04-25T08:30:55.006Z,1008.20
2019-04-25T08:31:53.862Z,1008.17
2019-04-25T08:32:54.081Z,1008.21
2019-04-25T08:33:53.712Z,1008.20
2019-04-25T08:34:54.233Z,1008.19
2019-04-25T08:36:04.265Z,1008.18
2019-04-25T08:36:54.267Z,1008.18
2019-04-25T08:37:53.747Z,1008.18
2019-04-25T08:38:53.545Z,1008.19
2019-04-25T08:39:53.931Z,1008.21
2019-04-25T08:40:54.339Z,1008.13
2019-04-25T08:41:53.973Z,1008.16
2019-04-25T08:42:53.781Z,1008.17
2019-04-25T08:43:54.422Z,1008.19
2019-04-25T08:44:53.460Z,1008.19
2019-04-25T08:45:54.274Z,1008.26
2019-04-25T08:46:53.536Z,1008.24
2019-04-25T08:47:53.830Z,1008.29
2019-04-25T08:48:53.909Z,1008.27
2019-04-25T08:49:53.860Z,1008.26
2019-04-25T08:50:53.686Z,1008.29
2019-04-25T08:51:53.960Z,1008.26
2019-04-25T08:52:52.357Z,1008.31
2019-04-25T08:53:53.476Z,1008.30
2019-04-25T08:54:52.201Z,1008.32
2019-04-25T08:55:53.910Z,1008.28
2019-04-25T08:56:53.162Z,1008.34
2019-04-25T08:57:53.845Z,1008.35
2019-04-25T08:59:03.224Z,1008.37
2019-04-25T08:59:52.925Z,1008.44
2019-04-25T09:00:59.184Z,1008.42
2019-04-25T09:01:53.478Z,1008.43
2019-04-25T09:02:51.627Z,1008.43
2019-04-25T09:03:51.566Z,1008.47
2019-04-25T09:04:51.492Z,1008.44
2019-04-25T09:05:51.478Z,1008.44
2019-04-25T09:06:51.352Z,1008.41
2019-04-25T09:07:51.279Z,1008.43
2019-04-25T09:08:51.229Z,1008.41
2019-04-25T09:09:51.128Z,1008.45
2019-04-25T09:10:51.071Z,1008.40
2019-04-25T09:11:50.992Z,1008.44
2019-04-25T09:12:50.915Z,1008.41
2019-04-25T09:13:50.853Z,1008.41
2019-04-25T09:14:50.777Z,1008.41
2019-04-25T09:15:50.703Z,1008.41
2019-04-25T09:16:50.635Z,1008.41
2019-04-25T09:17:50.567Z,1008.36
2019-04-25T09:18:50.491Z,1008.36
2019-04-25T09:19:50.428Z,1008.35
2019-04-25T09:20:50.353Z,1008.36
2019-04-25T09:21:50.279Z,1008.42
2019-04-25T09:22:50.216Z,1008.36
2019-04-25T09:23:50.142Z,1008.38
2019-04-25T09:24:50.067Z,1008.42
2019-04-25T09:25:50.004Z,1008.45
2019-04-25T09:26:49.929Z,1008.49
2019-04-25T09:27:49.867Z,1008.56
2019-04-25T09:28:49.796Z,1008.55
2019-04-25T09:29:49.729Z,1008.56
2019-04-25T09:30:49.656Z,1008.48
2019-04-25T09:31:49.584Z,1008.41
2019-04-25T09:32:49.504Z,1008.43
2019-04-25T09:33:49.443Z,1008.53
2019-04-25T09:34:50.102Z,1008.57
2019-04-25T09:35:49.296Z,1008.53
2019-04-25T09:36:49.230Z,1008.53
2019-04-25T09:37:49.155Z,1008.45
2019-04-25T09:38:49.080Z,1008.36
2019-04-25T09:39:49.019Z,1008.28
2019-04-25T09:40:48.946Z,1008.30
2019-04-25T09:41:48.869Z,1008.23
2019-04-25T09:42:48.796Z,1008.31
2019-04-25T09:43:48.731Z,1008.32
2019-04-25T09:44:48.656Z,1008.32
2019-04-25T09:45:48.590Z,1008.38
2019-04-25T09:46:48.519Z,1008.40
2019-04-25T09:47:48.431Z,1008.26
2019-04-25T09:48:48.358Z,1008.28
2019-04-25T09:49:48.366Z,1008.21
2019-04-25T09:50:48.224Z,1008.20
2019-04-25T09:51:48.145Z,1008.22
2019-04-25T09:52:48.718Z,1008.18
2019-04-25T09:53:51.002Z,1008.08
2019-04-25T09:54:47.920Z,1008.07
2019-04-25T09:55:48.287Z,1008.01
2019-04-25T09:56:47.770Z,1008.05
2019-04-25T09:57:47.708Z,1008.02
2019-04-25T09:58:48.582Z,1008.01
2019-04-25T09:59:48.121Z,1008.03
2019-04-25T10:00:47.651Z,1008.02
2019-04-25T10:01:48.207Z,1007.99
2019-04-25T10:02:47.349Z,1007.93
2019-04-25T10:03:47.360Z,1007.92
2019-04-25T10:04:48.121Z,1007.89
2019-04-25T10:05:47.112Z,1007.94
2019-04-25T10:06:47.563Z,1007.92
2019-04-25T10:07:48.908Z,1007.97
2019-04-25T10:08:47.493Z,1007.98
2019-04-25T10:09:46.809Z,1007.95
2019-04-25T10:10:46.789Z,1007.96
2019-04-25T10:11:46.659Z,1007.89
2019-04-25T10:12:47.422Z,1007.88
2019-04-25T10:13:46.586Z,1007.91
2019-04-25T10:14:47.920Z,1007.89
2019-04-25T10:15:46.363Z,1007.91
2019-04-25T10:16:46.273Z,1007.90
2019-04-25T10:17:46.299Z,1007.94
2019-04-25T10:18:46.123Z,1007.94
2019-04-25T10:19:46.047Z,1007.90
2019-04-25T10:20:46.332Z,1007.86
2019-04-25T10:21:45.898Z,1007.87
2019-04-25T10:22:46.560Z,1007.90
2019-04-25T10:23:46.746Z,1007.85
2019-04-25T10:24:57.568Z,1007.88
2019-04-25T10:25:46.474Z,1007.88
2019-04-25T10:26:46.318Z,1007.86
2019-04-25T10:27:48.186Z,1007.90
2019-04-25T10:28:45.373Z,1007.82
2019-04-25T10:29:51.620Z,1007.83
2019-04-25T10:30:45.227Z,1007.80
2019-04-25T10:31:45.200Z,1007.73
2019-04-25T10:32:45.374Z,1007.70
2019-04-25T10:33:45.808Z,1007.70
2019-04-25T10:34:46.116Z,1007.74
2019-04-25T10:35:52.099Z,1007.75
2019-04-25T10:36:45.417Z,1007.75
2019-04-25T10:37:45.587Z,1007.74
2019-04-25T10:38:54.497Z,1007.73
2019-04-25T10:39:44.836Z,1007.68
2019-04-25T10:40:45.159Z,1007.68
2019-04-25T10:41:46.150Z,1007.67
2019-04-25T10:42:47.584Z,1007.69
2019-04-25T10:43:44.247Z,1007.67
2019-04-25T10:44:45.721Z,1007.65
2019-04-25T10:45:44.748Z,1007.69
2019-04-25T10:46:46.910Z,1007.70
2019-04-25T10:47:44.301Z,1007.97
2019-04-25T10:48:44.027Z,1007.99
2019-04-25T10:49:44.973Z,1007.99
2019-04-25T10:50:45.495Z,1008.01
2019-04-25T10:51:44.726Z,1007.99
2019-04-25T10:52:45.514Z,1007.94
2019-04-25T10:53:45.588Z,1007.95
2019-04-25T10:54:45.243Z,1007.90
2019-04-25T10:55:43.339Z,1007.93
2019-04-25T10:56:45.649Z,1007.95
2019-04-25T10:57:44.882Z,1007.89
2019-04-25T10:58:44.483Z,1007.73
2019-04-25T10:59:54.533Z,1007.67
2019-04-25T11:00:44.852Z,1007.71
2019-04-25T11:01:44.672Z,1007.67
2019-04-25T11:02:43.778Z,1007.74
2019-04-25T11:03:44.220Z,1007.87
2019-04-25T11:04:44.252Z,1007.86
2019-04-25T11:05:42.807Z,1007.85
2019-04-25T11:06:45.394Z,1007.85
2019-04-25T11:07:42.478Z,1007.88
2019-04-25T11:08:42.417Z,1007.82
2019-04-25T11:09:44.962Z,1007.79
2019-04-25T11:10:43.991Z,1007.84
2019-04-25T11:11:43.104Z,1007.84
2019-04-25T11:12:42.830Z,1007.80
2019-04-25T11:13:42.067Z,1007.73
2019-04-25T11:14:42.229Z,1007.76
2019-04-25T11:15:41.985Z,1007.72
2019-04-25T11:16:42.851Z,1007.78
2019-04-25T11:17:42.431Z,1007.72
2019-04-25T11:18:41.871Z,1007.72
2019-04-25T11:19:42.483Z,1007.79
2019-04-25T11:20:42.673Z,1007.83
2019-04-25T11:21:42.694Z,1007.82
2019-04-25T11:22:42.370Z,1007.81
2019-04-25T11:23:41.444Z,1007.83
2019-04-25T11:24:41.633Z,1007.83
2019-04-25T11:25:41.523Z,1007.80
2019-04-25T11:26:41.582Z,1007.81
2019-04-25T11:27:41.117Z,1007.77
2019-04-25T11:28:41.056Z,1007.79
2019-04-25T11:29:41.627Z,1007.79
2019-04-25T11:30:41.864Z,1007.74
2019-04-25T11:31:40.856Z,1007.79
2019-04-25T11:32:40.787Z,1007.79
2019-04-25T11:33:40.718Z,1007.79
2019-04-25T11:34:40.644Z,1007.77
2019-04-25T11:35:40.582Z,1007.83
2019-04-25T11:36:40.518Z,1007.77
2019-04-25T11:37:40.456Z,1007.72
2019-04-25T11:38:40.384Z,1007.74
2019-04-25T11:39:40.318Z,1007.71
2019-04-25T11:40:40.259Z,1007.71
2019-04-25T11:41:40.182Z,1007.67
2019-04-25T11:42:40.119Z,1007.66
2019-04-25T11:43:40.057Z,1007.66
2019-04-25T11:44:39.995Z,1007.67
2019-04-25T11:45:39.919Z,1007.65
2019-04-25T11:46:39.859Z,1007.64
2019-04-25T11:47:39.796Z,1007.58
2019-04-25T11:48:39.721Z,1007.57
2019-04-25T11:49:39.657Z,1007.58
2019-04-25T11:50:39.595Z,1007.60
2019-04-25T11:51:39.533Z,1007.62
2019-04-25T11:52:39.463Z,1007.64
2019-04-25T11:53:39.395Z,1007.61
2019-04-25T11:54:39.333Z,1007.62
2019-04-25T11:55:39.271Z,1007.60
2019-04-25T11:56:39.196Z,1007.67
2019-04-25T11:57:39.140Z,1007.64
2019-04-25T11:58:39.071Z,1007.67
2019-04-25T11:59:39.008Z,1007.69
2019-04-25T12:00:38.946Z,1007.67
2019-04-25T12:01:38.871Z,1007.70
2019-04-25T12:02:38.809Z,1007.58
2019-04-25T12:03:38.746Z,1007.55
2019-04-25T12:04:38.684Z,1007.58